createdAt,value
2023-12-27T00:01:53.825Z,100990.75
2023-12-27T00:04:56.789Z,100993.00
2023-12-27T00:07:59.532Z,100987.34
2023-12-27T00:11:03.610Z,100988.88
2023-12-27T00:14:06.299Z,100985.47
2023-12-27T00:17:09.095Z,100980.66
2023-12-27T00:20:12.164Z,100986.03
2023-12-27T00:23:15.470Z,100994.41
2023-12-27T00:26:18.173Z,101000.56
2023-12-27T00:29:23.236Z,101007.25
2023-12-27T00:32:25.765Z,101015.19
2023-12-27T00:35:28.853Z,101012.50
2023-12-27T00:38:31.530Z,101018.22
2023-12-27T00:41:34.343Z,101023.47
2023-12-27T00:44:36.815Z,101033.75
2023-12-27T00:47:39.648Z,101041.84
2023-12-27T00:50:42.143Z,101036.66
2023-12-27T00:53:44.861Z,101042.44
2023-12-27T00:56:47.345Z,101045.97
2023-12-27T00:59:50.089Z,101048.56
2023-12-27T01:02:52.974Z,101053.75
2023-12-27T01:05:56.146Z,101056.84
2023-12-27T01:08:58.868Z,101062.91
2023-12-27T01:12:01.894Z,101068.41
2023-12-27T01:15:05.517Z,101079.44
2023-12-27T01:18:08.715Z,101076.16
2023-12-27T01:21:14.000Z,101087.38
2023-12-27T01:24:16.987Z,101081.63
2023-12-27T01:27:19.914Z,101085.00
2023-12-27T01:30:23.029Z,101088.06
2023-12-27T01:33:26.019Z,101097.50
2023-12-27T01:36:30.486Z,101098.28
2023-12-27T01:39:34.240Z,101108.34
2023-12-27T01:42:38.837Z,101104.31
2023-12-27T01:45:42.146Z,101119.91
2023-12-27T01:48:46.195Z,101113.59
2023-12-27T01:51:48.773Z,101125.00
2023-12-27T01:54:51.624Z,101125.22
2023-12-27T01:57:54.394Z,101129.38
2023-12-27T02:00:58.414Z,101127.91
2023-12-27T02:04:01.487Z,101127.63
2023-12-27T02:07:07.402Z,101132.00
2023-12-27T02:10:12.546Z,101135.59
2023-12-27T02:13:15.056Z,101131.03
2023-12-27T02:16:21.727Z,101133.72
2023-12-27T02:19:27.302Z,101134.34
2023-12-27T02:22:34.503Z,101133.88
2023-12-27T02:25:38.387Z,101128.53
2023-12-27T02:28:41.106Z,101136.31
2023-12-27T02:31:43.685Z,101142.72
2023-12-27T02:34:46.626Z,101141.81
2023-12-27T02:37:49.338Z,101141.28
2023-12-27T02:40:52.208Z,101141.38
2023-12-27T02:43:54.862Z,101130.38
2023-12-27T02:46:57.885Z,101141.03
2023-12-27T02:50:00.785Z,101139.31
2023-12-27T02:53:04.005Z,101131.19
2023-12-27T02:56:06.844Z,101142.88
2023-12-27T02:59:10.365Z,101143.13
2023-12-27T03:02:13.051Z,101135.31
2023-12-27T03:05:16.040Z,101140.91
2023-12-27T03:08:18.729Z,101143.03
2023-12-27T03:11:21.711Z,101144.16
2023-12-27T03:14:24.999Z,101146.06
2023-12-27T03:17:27.960Z,101152.34
2023-12-27T03:20:30.676Z,101131.94
2023-12-27T03:23:33.610Z,101163.16
2023-12-27T03:26:36.551Z,101162.37
2023-12-27T03:29:39.478Z,101156.59
2023-12-27T03:32:42.360Z,101169.03
2023-12-27T03:35:46.553Z,101181.78
2023-12-27T03:38:48.988Z,101170.53
2023-12-27T03:41:51.734Z,101172.13
2023-12-27T03:44:54.473Z,101172.91
2023-12-27T03:47:57.661Z,101171.41
2023-12-27T03:51:00.910Z,101167.03
2023-12-27T03:54:03.854Z,101180.56
2023-12-27T03:57:06.566Z,101183.56
2023-12-27T04:00:11.508Z,101187.62
2023-12-27T04:03:16.016Z,101171.78
2023-12-27T04:06:20.223Z,101196.84
2023-12-27T04:09:23.357Z,101193.75
2023-12-27T04:12:26.158Z,101198.28
2023-12-27T04:15:29.184Z,101197.75
2023-12-27T04:18:33.137Z,101200.94
2023-12-27T04:21:36.445Z,101196.66
2023-12-27T04:24:39.175Z,101183.31
2023-12-27T04:27:42.157Z,101192.78
2023-12-27T04:30:45.252Z,101199.06
2023-12-27T04:33:49.090Z,101189.97
2023-12-27T04:36:51.646Z,101193.84
2023-12-27T04:39:54.409Z,101200.34
2023-12-27T04:42:57.047Z,101202.75
2023-12-27T04:45:59.798Z,101194.47
2023-12-27T04:49:02.862Z,101209.59
2023-12-27T04:52:06.431Z,101217.75
2023-12-27T04:55:09.237Z,101210.69
2023-12-27T04:58:12.164Z,101228.81
2023-12-27T05:01:17.922Z,101237.56
2023-12-27T05:04:20.994Z,101237.47
2023-12-27T05:07:23.537Z,101246.03
2023-12-27T05:10:26.247Z,101247.63
2023-12-27T05:13:28.969Z,101247.50
2023-12-27T05:16:31.671Z,101254.88
2023-12-27T05:19:38.890Z,101256.25
2023-12-27T05:22:41.957Z,101277.94
2023-12-27T05:25:44.634Z,101280.00
2023-12-27T05:28:47.601Z,101285.53
2023-12-27T05:31:50.399Z,101288.84
2023-12-27T05:34:54.135Z,101283.03
2023-12-27T05:37:56.745Z,101298.69
2023-12-27T05:40:59.613Z,101294.09
2023-12-27T05:44:02.925Z,101293.88
2023-12-27T05:47:06.089Z,101301.00
2023-12-27T05:50:10.649Z,101299.44
2023-12-27T05:53:15.151Z,101309.91
2023-12-27T05:56:17.837Z,101303.28
2023-12-27T05:59:21.005Z,101314.28
2023-12-27T06:02:23.839Z,101314.75
2023-12-27T06:05:27.070Z,101322.50
2023-12-27T06:08:29.531Z,101334.81
2023-12-27T06:11:32.562Z,101342.56
2023-12-27T06:14:35.929Z,101340.03
2023-12-27T06:17:39.159Z,101338.91
2023-12-27T06:20:42.028Z,101346.06
2023-12-27T06:23:45.024Z,101360.28
2023-12-27T06:26:47.616Z,101356.47
2023-12-27T06:29:50.391Z,101360.38
2023-12-27T06:32:53.390Z,101369.44
2023-12-27T06:35:56.179Z,101363.25
2023-12-27T06:38:58.859Z,101371.31
2023-12-27T06:42:02.016Z,101376.34
2023-12-27T06:45:05.406Z,101378.50
2023-12-27T06:48:08.269Z,101383.88
2023-12-27T06:51:13.022Z,101394.22
2023-12-27T06:54:16.086Z,101407.84
2023-12-27T06:57:18.876Z,101420.09
2023-12-27T07:00:22.076Z,101428.31
2023-12-27T07:03:28.213Z,101435.97
2023-12-27T07:06:31.253Z,101438.34
2023-12-27T07:09:35.717Z,101446.09
2023-12-27T07:12:39.798Z,101439.25
2023-12-27T07:15:43.446Z,101432.69
2023-12-27T07:18:46.447Z,101435.25
2023-12-27T07:21:49.548Z,101444.59
2023-12-27T07:24:52.521Z,101452.19
2023-12-27T07:27:55.269Z,101452.00
2023-12-27T07:30:59.063Z,101448.00
2023-12-27T07:34:01.635Z,101457.44
2023-12-27T07:37:05.157Z,101460.09
2023-12-27T07:40:08.538Z,101461.59
2023-12-27T07:43:12.162Z,101458.88
2023-12-27T07:46:15.899Z,101461.97
2023-12-27T07:49:19.191Z,101458.97
2023-12-27T07:52:22.710Z,101473.84
2023-12-27T07:55:25.790Z,101485.41
2023-12-27T07:58:28.578Z,101473.25
2023-12-27T08:01:33.002Z,101479.59
2023-12-27T08:04:36.086Z,101479.03
2023-12-27T08:07:40.109Z,101480.97
2023-12-27T08:10:44.634Z,101480.22
2023-12-27T08:13:48.606Z,101482.16
2023-12-27T08:16:54.259Z,101491.81
2023-12-27T08:19:57.030Z,101491.56
2023-12-27T08:23:00.010Z,101492.28
2023-12-27T08:26:07.934Z,101496.03
2023-12-27T08:29:10.917Z,101491.63
2023-12-27T08:32:13.603Z,101486.69
2023-12-27T08:35:19.692Z,101488.41
2023-12-27T08:38:24.692Z,101480.47
2023-12-27T08:41:28.215Z,101500.25
2023-12-27T08:44:31.068Z,101504.72
2023-12-27T08:47:34.101Z,101518.66
2023-12-27T08:50:37.697Z,101518.94
2023-12-27T08:53:40.532Z,101523.47
2023-12-27T08:56:43.031Z,101536.38
2023-12-27T08:59:46.215Z,101536.41
2023-12-27T09:02:49.231Z,101537.19
2023-12-27T09:05:52.416Z,101542.31
2023-12-27T09:08:55.275Z,101554.41
2023-12-27T09:11:58.265Z,101553.81
2023-12-27T09:19:31.243Z,101564.72
2023-12-27T09:22:34.522Z,101563.13
2023-12-27T09:25:37.238Z,101568.75
2023-12-27T09:28:40.294Z,101568.97
2023-12-27T09:31:45.739Z,101572.16
2023-12-27T09:34:49.007Z,101573.41
2023-12-27T09:37:51.606Z,101581.00
2023-12-27T09:40:55.023Z,101578.47
2023-12-27T09:43:59.149Z,101584.12
2023-12-27T09:47:03.886Z,101573.16
2023-12-27T09:50:07.871Z,101580.59
2023-12-27T09:53:12.175Z,101572.37
2023-12-27T09:56:15.913Z,101582.97
2023-12-27T09:59:27.678Z,101573.16
2023-12-27T10:02:30.560Z,101568.72
2023-12-27T10:05:39.483Z,101570.84
2023-12-27T10:08:42.175Z,101572.87
2023-12-27T10:11:49.114Z,101570.75
2023-12-27T10:14:53.312Z,101561.31
2023-12-27T10:17:56.576Z,101565.53
2023-12-27T10:20:59.938Z,101566.66
2023-12-27T10:24:07.028Z,101569.09
2023-12-27T10:27:12.758Z,101571.34
2023-12-27T10:30:20.166Z,101567.94
2023-12-27T10:33:27.889Z,101567.25
2023-12-27T10:36:36.138Z,101574.97
2023-12-27T10:39:45.708Z,101554.59
2023-12-27T10:42:49.255Z,101577.62
2023-12-27T10:45:52.038Z,101577.56
2023-12-27T10:48:57.748Z,101569.97
2023-12-27T10:52:01.008Z,101572.84
2023-12-27T10:55:05.460Z,101570.16
2023-12-27T10:58:17.037Z,101564.00
2023-12-27T11:01:21.159Z,101570.47
2023-12-27T11:04:24.562Z,101564.16
2023-12-27T11:07:30.065Z,101558.34
2023-12-27T11:10:36.676Z,101547.44
2023-12-27T11:13:39.740Z,101552.53
2023-12-27T11:16:45.387Z,101545.66
2023-12-27T11:19:48.642Z,101540.34
2023-12-27T11:22:51.457Z,101537.38
2023-12-27T11:25:55.997Z,101529.31
2023-12-27T11:28:58.548Z,101523.69
2023-12-27T11:32:01.442Z,101504.78
2023-12-27T11:35:04.885Z,101521.41
2023-12-27T11:38:20.694Z,101522.31
2023-12-27T11:41:23.447Z,101516.25
2023-12-27T11:44:42.037Z,101522.97
2023-12-27T11:47:47.395Z,101514.94
2023-12-27T11:50:50.345Z,101518.44
2023-12-27T11:53:54.421Z,101515.75
2023-12-27T11:56:57.542Z,101525.31
2023-12-27T12:00:00.317Z,101518.16
2023-12-27T12:03:15.030Z,101516.22
2023-12-27T12:06:53.818Z,101520.53
2023-12-27T12:09:57.731Z,101524.50
2023-12-27T12:13:01.045Z,101522.47
2023-12-27T12:16:03.919Z,101514.22
2023-12-27T12:19:09.521Z,101512.19
2023-12-27T12:22:14.809Z,101507.38
2023-12-27T12:25:24.781Z,101504.41
2023-12-27T12:28:31.076Z,101504.00
2023-12-27T12:31:35.438Z,101504.84
2023-12-27T12:34:38.362Z,101489.44
2023-12-27T12:37:41.546Z,101506.94
2023-12-27T12:40:44.332Z,101498.66
2023-12-27T12:43:49.492Z,101496.72
2023-12-27T12:46:52.770Z,101488.59
2023-12-27T12:49:55.858Z,101473.94
2023-12-27T12:52:58.419Z,101501.16
2023-12-27T12:56:02.168Z,101504.34
2023-12-27T12:59:04.762Z,101487.53
2023-12-27T13:02:07.529Z,101487.13
2023-12-27T13:05:13.508Z,101481.59
2023-12-27T13:08:16.901Z,101480.94
2023-12-27T13:11:21.497Z,101477.22
2023-12-27T13:14:24.348Z,101481.28
2023-12-27T13:17:27.016Z,101481.13
2023-12-27T13:20:29.867Z,101466.06
2023-12-27T13:23:32.350Z,101466.66
2023-12-27T13:26:35.472Z,101480.66
2023-12-27T13:29:37.931Z,101471.69
2023-12-27T13:32:40.967Z,101458.84
2023-12-27T13:35:43.522Z,101433.94
2023-12-27T13:38:46.596Z,101471.13
2023-12-27T13:41:49.760Z,101473.50
2023-12-27T13:44:52.924Z,101467.53
2023-12-27T13:47:55.898Z,101471.44
2023-12-27T13:50:58.927Z,101473.91
2023-12-27T13:54:09.420Z,101467.91
2023-12-27T13:57:21.644Z,101480.94
2023-12-27T14:00:24.253Z,101484.19
2023-12-27T14:03:31.398Z,101478.47
2023-12-27T14:06:35.578Z,101477.22
2023-12-27T14:09:40.291Z,101478.84
2023-12-27T14:12:45.795Z,101495.66
2023-12-27T14:15:48.717Z,101488.16
2023-12-27T14:18:52.056Z,101491.03
2023-12-27T14:21:56.426Z,101495.53
2023-12-27T14:24:58.985Z,101495.94
2023-12-27T14:28:07.088Z,101499.19
2023-12-27T14:31:15.911Z,101503.03
2023-12-27T14:34:19.080Z,101487.25
2023-12-27T14:37:22.739Z,101491.84
2023-12-27T14:40:26.961Z,101485.59
2023-12-27T14:43:29.835Z,101495.63
2023-12-27T14:46:33.116Z,101484.50
2023-12-27T14:49:36.494Z,101484.66
2023-12-27T14:52:40.160Z,101486.31
2023-12-27T14:55:42.868Z,101485.34
2023-12-27T14:58:45.849Z,101490.56
2023-12-27T15:01:48.431Z,101474.25
2023-12-27T15:04:52.520Z,101484.44
2023-12-27T15:07:56.962Z,101490.53
2023-12-27T15:11:00.044Z,101484.25
2023-12-27T15:14:03.008Z,101487.63
2023-12-27T15:17:07.734Z,101484.34
2023-12-27T15:20:12.000Z,101480.03
2023-12-27T15:23:14.743Z,101487.53
2023-12-27T15:26:21.595Z,101486.69
2023-12-27T15:29:24.571Z,101478.69
2023-12-27T15:32:27.419Z,101492.91
2023-12-27T15:35:30.408Z,101476.75
2023-12-27T15:38:33.738Z,101488.38
2023-12-27T15:41:36.925Z,101485.47
2023-12-27T15:44:46.961Z,101485.69
2023-12-27T15:47:51.144Z,101481.66
2023-12-27T15:50:53.680Z,101468.25
2023-12-27T15:53:57.103Z,101478.59
2023-12-27T15:56:59.938Z,101463.31
2023-12-27T16:00:06.659Z,101446.16
2023-12-27T16:03:09.857Z,101452.78
2023-12-27T16:06:12.739Z,101456.63
2023-12-27T16:09:15.957Z,101463.69
2023-12-27T16:12:18.734Z,101456.84
2023-12-27T16:15:22.199Z,101472.81
2023-12-27T16:18:25.819Z,101467.66
2023-12-27T16:21:29.036Z,101472.72
2023-12-27T16:24:31.919Z,101471.25
2023-12-27T16:27:34.810Z,101474.97
2023-12-27T16:30:37.905Z,101479.12
2023-12-27T16:33:41.034Z,101473.63
2023-12-27T16:36:43.600Z,101475.41
2023-12-27T16:39:47.120Z,101482.16
2023-12-27T16:42:52.495Z,101471.37
2023-12-27T16:45:55.710Z,101467.44
2023-12-27T16:48:59.861Z,101475.62
2023-12-27T16:52:03.961Z,101473.06
2023-12-27T16:55:07.199Z,101484.84
2023-12-27T16:58:10.707Z,101487.53
2023-12-27T17:01:14.772Z,101475.97
2023-12-27T17:04:17.850Z,101478.22
2023-12-27T17:07:20.802Z,101482.16
2023-12-27T17:10:27.197Z,101483.28
2023-12-27T17:13:29.825Z,101479.56
2023-12-27T17:16:32.549Z,101483.38
2023-12-27T17:19:35.563Z,101487.31
2023-12-27T17:22:38.648Z,101483.25
2023-12-27T17:25:41.533Z,101493.03
2023-12-27T17:28:44.312Z,101494.28
2023-12-27T17:31:46.800Z,101493.03
2023-12-27T17:34:50.542Z,101487.87
2023-12-27T17:37:54.741Z,101498.09
2023-12-27T17:40:57.713Z,101506.44
2023-12-27T17:44:00.176Z,101503.81
2023-12-27T17:47:03.434Z,101503.59
2023-12-27T17:50:06.600Z,101494.28
2023-12-27T17:53:12.489Z,101510.22
2023-12-27T17:56:14.961Z,101511.03
2023-12-27T17:59:18.945Z,101515.28
2023-12-27T18:02:28.753Z,101517.75
2023-12-27T18:05:33.135Z,101506.75
2023-12-27T18:08:35.951Z,101509.78
2023-12-27T18:11:39.079Z,101515.28
2023-12-27T18:14:42.508Z,101515.19
2023-12-27T18:17:45.640Z,101527.09
2023-12-27T18:20:48.466Z,101533.50
2023-12-27T18:23:51.623Z,101535.50
2023-12-27T18:26:54.379Z,101527.75
2023-12-27T18:29:57.448Z,101524.28
2023-12-27T18:33:00.778Z,101524.50
2023-12-27T18:36:04.911Z,101521.91
2023-12-27T18:39:07.761Z,101523.50
2023-12-27T18:42:11.040Z,101519.91
2023-12-27T18:45:13.810Z,101521.56
2023-12-27T18:48:17.335Z,101519.34
2023-12-27T18:51:20.824Z,101512.72
2023-12-27T18:54:23.664Z,101515.41
2023-12-27T18:57:26.490Z,101513.94
2023-12-27T19:00:29.511Z,101501.78
2023-12-27T19:03:32.447Z,101491.63
2023-12-27T19:06:35.753Z,101489.16
2023-12-27T19:09:40.428Z,101490.81
2023-12-27T19:12:44.788Z,101493.16
2023-12-27T19:15:47.685Z,101480.34
2023-12-27T19:18:51.474Z,101491.53
2023-12-27T19:21:57.270Z,101493.34
2023-12-27T19:25:00.600Z,101479.53
2023-12-27T19:28:03.784Z,101482.78
2023-12-27T19:31:07.195Z,101494.53
2023-12-27T19:34:10.324Z,101495.44
2023-12-27T19:37:13.398Z,101503.06
2023-12-27T19:40:16.609Z,101489.81
2023-12-27T19:43:19.589Z,101489.19
2023-12-27T19:46:22.591Z,101493.28
2023-12-27T19:49:25.642Z,101492.38
2023-12-27T19:52:28.581Z,101495.06
2023-12-27T19:55:31.581Z,101503.25
2023-12-27T19:58:34.322Z,101495.63
2023-12-27T20:01:38.705Z,101496.97
2023-12-27T20:04:41.760Z,101503.63
2023-12-27T20:07:44.413Z,101495.19
2023-12-27T20:10:47.222Z,101492.03
2023-12-27T20:13:51.118Z,101494.84
2023-12-27T20:16:54.871Z,101497.53
2023-12-27T20:19:57.726Z,101493.38
2023-12-27T20:23:01.217Z,101498.53
2023-12-27T20:26:04.109Z,101506.41
2023-12-27T20:29:06.949Z,101508.22
2023-12-27T20:32:09.894Z,101505.94
2023-12-27T20:35:13.053Z,101496.62
2023-12-27T20:38:16.264Z,101500.22
2023-12-27T20:41:20.701Z,101493.47
2023-12-27T20:44:24.122Z,101508.88
2023-12-27T20:47:27.301Z,101505.38
2023-12-27T20:50:29.926Z,101496.72
2023-12-27T20:53:35.878Z,101502.22
2023-12-27T20:56:42.253Z,101501.22
2023-12-27T20:59:46.072Z,101495.03
2023-12-27T21:02:48.818Z,101491.44
2023-12-27T21:05:57.505Z,101492.59
2023-12-27T21:09:00.628Z,101492.38
2023-12-27T21:12:04.278Z,101482.81
2023-12-27T21:15:08.206Z,101498.88
2023-12-27T21:18:11.309Z,101496.75
2023-12-27T21:21:14.154Z,101486.53
2023-12-27T21:24:17.234Z,101486.66
2023-12-27T21:27:23.825Z,101488.09
2023-12-27T21:30:26.649Z,101499.00
2023-12-27T21:33:29.453Z,101501.03
2023-12-27T21:36:34.454Z,101504.03
2023-12-27T21:39:37.068Z,101508.63
2023-12-27T21:42:40.105Z,101509.38
2023-12-27T21:45:42.866Z,101504.31
2023-12-27T21:48:46.475Z,101494.63
2023-12-27T21:51:49.144Z,101505.91
2023-12-27T21:54:51.975Z,101499.81
2023-12-27T21:57:54.629Z,101495.75
2023-12-27T22:00:57.533Z,101504.66
2023-12-27T22:04:00.329Z,101493.75
2023-12-27T22:07:03.460Z,101494.47
2023-12-27T22:10:07.502Z,101496.22
2023-12-27T22:13:10.035Z,101489.69
2023-12-27T22:16:16.152Z,101477.87
2023-12-27T22:19:19.181Z,101473.91
2023-12-27T22:22:26.364Z,101467.13
2023-12-27T22:25:28.994Z,101469.31
2023-12-27T22:28:31.804Z,101477.56
2023-12-27T22:31:34.683Z,101483.50
2023-12-27T22:34:40.649Z,101477.19
2023-12-27T22:37:43.401Z,101467.19
2023-12-27T22:40:46.559Z,101455.91
2023-12-27T22:43:49.041Z,101466.84
2023-12-27T22:46:51.813Z,101460.44
2023-12-27T22:49:54.577Z,101459.94
2023-12-27T22:52:57.584Z,101460.34
2023-12-27T22:56:00.094Z,101457.28
2023-12-27T22:59:02.953Z,101459.59
2023-12-27T23:02:05.667Z,101460.25
2023-12-27T23:05:08.730Z,101464.37
2023-12-27T23:08:11.476Z,101455.59
2023-12-27T23:11:14.432Z,101452.12
2023-12-27T23:14:17.144Z,101460.13
2023-12-27T23:17:23.732Z,101457.81
2023-12-27T23:20:26.487Z,101456.03
2023-12-27T23:23:29.455Z,101455.91
2023-12-27T23:26:32.160Z,101450.75
2023-12-27T23:29:35.228Z,101457.44
2023-12-27T23:32:45.040Z,101453.84
2023-12-27T23:35:53.615Z,101460.91
2023-12-27T23:38:56.147Z,101457.81
2023-12-27T23:42:00.172Z,101450.50
2023-12-27T23:45:02.949Z,101452.03
2023-12-27T23:48:06.391Z,101455.41
2023-12-27T23:51:09.307Z,101459.25
2023-12-27T23:54:12.445Z,101466.84
2023-12-27T23:57:16.667Z,101458.22
